createdAt,value
2017-10-18T00:01:49.406Z,8.90
2017-10-18T00:04:18.840Z,9.20
2017-10-18T00:06:48.203Z,8.80
2017-10-18T00:09:17.653Z,8.87
2017-10-18T00:11:47.050Z,10.27
2017-10-18T00:14:16.501Z,8.77
2017-10-18T00:16:45.886Z,9.17
2017-10-18T00:19:15.290Z,9.93
2017-10-18T00:21:44.684Z,11.27
2017-10-18T00:24:13.876Z,12.13
2017-10-18T00:26:43.271Z,10.67
2017-10-18T00:29:12.660Z,10.37
2017-10-18T00:31:42.051Z,10.80
2017-10-18T00:34:11.441Z,11.70
2017-10-18T00:36:40.837Z,10.80
2017-10-18T00:39:10.214Z,13.40
2017-10-18T00:41:39.602Z,11.00
2017-10-18T00:44:09.001Z,13.07
2017-10-18T00:46:38.198Z,11.70
2017-10-18T00:49:07.610Z,13.30
2017-10-18T00:51:36.801Z,12.23
2017-10-18T00:54:06.204Z,12.37
2017-10-18T00:56:35.598Z,12.17
2017-10-18T00:59:04.984Z,11.97
2017-10-18T01:01:34.383Z,11.87
2017-10-18T01:04:03.772Z,12.20
2017-10-18T01:06:33.192Z,11.93
2017-10-18T01:09:02.389Z,10.80
2017-10-18T01:11:31.794Z,11.67
2017-10-18T01:14:01.178Z,11.67
2017-10-18T01:16:30.575Z,11.00
2017-10-18T01:18:59.985Z,12.17
2017-10-18T01:21:29.374Z,10.60
2017-10-18T01:23:58.768Z,9.80
2017-10-18T01:26:28.162Z,10.73
2017-10-18T01:28:57.576Z,10.90
2017-10-18T01:31:26.945Z,11.00
2017-10-18T01:33:56.329Z,10.23
2017-10-18T01:36:25.743Z,10.50
2017-10-18T01:38:55.133Z,11.67
2017-10-18T01:41:24.553Z,11.03
2017-10-18T01:43:53.938Z,11.30
2017-10-18T01:46:23.359Z,11.93
2017-10-18T01:48:52.742Z,11.53
2017-10-18T01:51:22.133Z,10.20
2017-10-18T01:53:51.545Z,10.70
2017-10-18T01:56:20.937Z,12.80
2017-10-18T01:58:50.318Z,13.80
2017-10-18T02:01:19.714Z,13.97
2017-10-18T02:03:49.116Z,11.40
2017-10-18T02:06:18.497Z,12.83
2017-10-18T02:08:47.902Z,11.40
2017-10-18T02:11:17.288Z,13.20
2017-10-18T02:13:46.664Z,11.60
2017-10-18T02:16:16.062Z,12.80
2017-10-18T02:18:45.444Z,12.20
2017-10-18T02:21:14.851Z,12.00
2017-10-18T02:23:44.237Z,11.73
2017-10-18T02:26:13.734Z,11.50
2017-10-18T02:28:43.173Z,10.73
2017-10-18T02:31:12.557Z,11.83
2017-10-18T02:33:41.954Z,11.43
2017-10-18T02:36:11.600Z,10.90
2017-10-18T02:38:41.001Z,11.93
2017-10-18T02:41:10.383Z,11.73
2017-10-18T02:43:39.806Z,12.23
2017-10-18T02:46:09.258Z,12.40
2017-10-18T02:48:38.629Z,11.63
2017-10-18T02:51:08.023Z,11.30
2017-10-18T02:53:37.405Z,12.07
2017-10-18T02:56:06.797Z,11.27
2017-10-18T02:58:36.197Z,11.30
2017-10-18T03:01:05.598Z,10.17
2017-10-18T03:03:34.980Z,11.03
2017-10-18T03:06:04.358Z,9.97
2017-10-18T03:08:33.823Z,10.63
2017-10-18T03:11:03.211Z,10.60
2017-10-18T03:13:32.601Z,11.53
2017-10-18T03:16:02.001Z,11.07
2017-10-18T03:18:31.403Z,11.20
2017-10-18T03:21:00.791Z,12.80
2017-10-18T03:23:30.230Z,11.30
2017-10-18T03:25:59.428Z,10.73
2017-10-18T03:28:28.817Z,11.20
2017-10-18T03:30:57.876Z,10.37
2017-10-18T03:33:27.258Z,10.47
2017-10-18T03:35:56.312Z,12.13
2017-10-18T03:38:25.701Z,10.93
2017-10-18T03:40:54.897Z,9.13
2017-10-18T03:43:24.297Z,10.63
2017-10-18T03:45:53.689Z,10.67
2017-10-18T03:48:23.073Z,8.73
2017-10-18T03:50:52.452Z,9.60
2017-10-18T03:53:21.848Z,8.90
2017-10-18T03:55:51.229Z,8.93
2017-10-18T03:58:20.621Z,9.00
2017-10-18T04:00:50.013Z,9.77
2017-10-18T04:03:19.399Z,9.90
2017-10-18T04:05:48.793Z,9.33
2017-10-18T04:08:18.325Z,9.57
2017-10-18T04:10:47.979Z,9.47
2017-10-18T04:13:17.374Z,9.00
2017-10-18T04:15:46.753Z,9.43
2017-10-18T04:18:16.148Z,9.57
2017-10-18T04:20:45.538Z,9.50
2017-10-18T04:23:14.951Z,10.27
2017-10-18T04:25:44.339Z,10.10
2017-10-18T04:28:13.716Z,10.83
2017-10-18T04:30:43.104Z,10.07
2017-10-18T04:33:12.481Z,9.17
2017-10-18T04:35:41.920Z,10.57
2017-10-18T04:38:11.297Z,9.13
2017-10-18T04:40:40.680Z,9.10
2017-10-18T04:43:10.078Z,8.43
2017-10-18T04:45:39.461Z,8.70
2017-10-18T04:48:08.668Z,9.80
2017-10-18T04:50:38.075Z,7.60
2017-10-18T04:53:07.449Z,8.03
2017-10-18T04:55:36.845Z,8.00
2017-10-18T04:58:06.228Z,10.47
2017-10-18T05:00:35.619Z,8.27
2017-10-18T05:03:05.003Z,8.97
2017-10-18T05:05:34.051Z,8.53
2017-10-18T05:08:03.445Z,9.00
2017-10-18T05:10:32.831Z,9.23
2017-10-18T05:13:02.286Z,8.87
2017-10-18T05:15:31.664Z,8.50
2017-10-18T05:18:01.048Z,9.77
2017-10-18T05:20:30.091Z,9.07
2017-10-18T05:22:59.466Z,9.43
2017-10-18T05:25:28.870Z,9.53
2017-10-18T05:27:58.796Z,8.83
2017-10-18T05:30:28.212Z,8.67
2017-10-18T05:32:57.588Z,8.17
2017-10-18T05:35:26.971Z,8.33
2017-10-18T05:37:56.398Z,7.70
2017-10-18T05:40:25.778Z,8.00
2017-10-18T05:42:55.223Z,8.90
2017-10-18T05:45:24.606Z,8.70
2017-10-18T05:47:53.985Z,7.57
2017-10-18T05:50:23.378Z,8.80
2017-10-18T05:52:52.767Z,8.20
2017-10-18T05:55:22.161Z,9.00
2017-10-18T05:57:51.194Z,8.07
2017-10-18T06:00:20.572Z,6.57
2017-10-18T06:02:49.958Z,7.67
2017-10-18T06:05:19.333Z,8.80
2017-10-18T06:07:48.733Z,7.67
2017-10-18T06:10:18.117Z,7.80
2017-10-18T06:12:47.497Z,7.37
2017-10-18T06:15:16.895Z,9.00
2017-10-18T06:17:46.097Z,8.07
2017-10-18T06:20:14.959Z,8.17
2017-10-18T06:22:44.337Z,8.30
2017-10-18T06:25:13.721Z,7.77
2017-10-18T06:27:43.113Z,8.33
2017-10-18T06:30:12.524Z,8.10
2017-10-18T06:32:42.241Z,7.63
2017-10-18T06:35:11.621Z,7.90
2017-10-18T06:37:40.830Z,7.40
2017-10-18T06:40:10.226Z,6.60
2017-10-18T06:42:39.614Z,8.10
2017-10-18T06:45:09.012Z,9.03
2017-10-18T06:47:38.398Z,8.47
2017-10-18T06:50:07.819Z,8.37
2017-10-18T06:52:37.204Z,7.10
2017-10-18T06:55:06.578Z,7.07
2017-10-18T06:57:35.768Z,7.10
2017-10-18T07:00:05.163Z,8.27
2017-10-18T07:02:34.552Z,7.27
2017-10-18T07:05:03.953Z,8.10
2017-10-18T07:07:33.344Z,9.03
2017-10-18T07:10:02.733Z,7.77
2017-10-18T07:12:32.142Z,7.70
2017-10-18T07:15:01.565Z,8.63
2017-10-18T07:17:30.951Z,8.73
2017-10-18T07:20:00.335Z,8.43
2017-10-18T07:22:29.741Z,9.70
2017-10-18T07:24:59.114Z,9.00
2017-10-18T07:27:28.536Z,8.97
2017-10-18T07:29:57.910Z,9.30
2017-10-18T07:32:27.289Z,9.73
2017-10-18T07:34:56.689Z,9.40
2017-10-18T07:37:26.062Z,8.37
2017-10-18T07:39:55.471Z,9.40
2017-10-18T07:42:24.866Z,8.63
2017-10-18T07:44:54.253Z,10.07
2017-10-18T07:47:23.636Z,9.53
2017-10-18T07:49:53.027Z,8.63
2017-10-18T07:52:22.431Z,11.00
2017-10-18T07:54:51.624Z,11.17
2017-10-18T07:57:20.815Z,10.10
2017-10-18T07:59:50.036Z,8.53
2017-10-18T08:02:19.415Z,9.97
2017-10-18T08:04:48.809Z,9.97
2017-10-18T08:07:18.193Z,9.37
2017-10-18T08:09:47.362Z,8.70
2017-10-18T08:12:15.404Z,9.07
2017-10-18T08:14:43.872Z,8.57
2017-10-18T08:17:12.286Z,9.63
2017-10-18T08:19:40.673Z,9.40
2017-10-18T08:22:09.057Z,9.43
2017-10-18T08:24:37.498Z,9.17
2017-10-18T08:27:05.878Z,9.30
2017-10-18T08:29:34.269Z,9.40
2017-10-18T08:32:02.648Z,9.83
2017-10-18T08:34:31.033Z,10.60
2017-10-18T08:36:59.434Z,9.27
2017-10-18T08:39:28.601Z,9.17
2017-10-18T08:41:56.471Z,10.17
2017-10-18T08:44:24.845Z,9.00
2017-10-18T08:46:52.885Z,9.63
2017-10-18T08:49:20.940Z,11.20
2017-10-18T08:51:49.326Z,10.30
2017-10-18T08:54:17.734Z,11.27
2017-10-18T08:56:46.121Z,10.23
2017-10-18T08:59:14.529Z,11.07
2017-10-18T09:01:43.008Z,9.20
2017-10-18T09:04:11.192Z,8.90
2017-10-18T09:06:40.366Z,9.83
2017-10-18T09:09:08.757Z,9.73
2017-10-18T09:11:37.914Z,10.37
2017-10-18T09:14:06.124Z,10.37
2017-10-18T09:16:34.508Z,9.07
2017-10-18T09:19:03.688Z,8.60
2017-10-18T09:21:32.062Z,9.93
2017-10-18T09:24:00.440Z,9.33
2017-10-18T09:26:28.816Z,9.67
2017-10-18T09:28:57.216Z,8.90
2017-10-18T09:31:26.379Z,8.43
2017-10-18T09:33:54.766Z,10.03
2017-10-18T09:36:23.146Z,9.50
2017-10-18T09:38:51.570Z,9.03
2017-10-18T09:41:19.957Z,9.10
2017-10-18T09:43:48.421Z,8.67
2017-10-18T09:46:16.817Z,10.90
2017-10-18T09:48:45.205Z,8.60
2017-10-18T09:51:13.668Z,8.53
2017-10-18T09:53:42.049Z,10.00
2017-10-18T09:56:10.415Z,9.83
2017-10-18T09:58:38.839Z,8.80
2017-10-18T10:01:07.219Z,9.00
2017-10-18T10:03:35.598Z,9.23
2017-10-18T10:06:04.019Z,10.97
2017-10-18T10:08:33.166Z,9.70
2017-10-18T10:11:01.370Z,8.20
2017-10-18T10:13:29.671Z,9.57
2017-10-18T10:15:58.622Z,9.40
2017-10-18T10:18:27.018Z,9.80
2017-10-18T10:20:55.409Z,9.07
2017-10-18T10:23:24.566Z,9.07
2017-10-18T10:25:52.958Z,8.20
2017-10-18T10:28:21.383Z,7.77
2017-10-18T10:30:49.877Z,7.63
2017-10-18T10:33:18.572Z,7.50
2017-10-18T10:35:46.789Z,7.07
2017-10-18T10:38:15.173Z,6.93
2017-10-18T10:40:43.558Z,7.00
2017-10-18T10:43:12.723Z,7.20
2017-10-18T10:45:41.454Z,7.13
2017-10-18T10:48:09.831Z,6.90
2017-10-18T10:50:38.258Z,6.97
2017-10-18T10:53:06.650Z,6.50
2017-10-18T10:55:35.035Z,7.97
2017-10-18T10:58:03.469Z,7.50
2017-10-18T11:00:31.878Z,8.13
2017-10-18T11:03:00.262Z,6.40
2017-10-18T11:05:28.675Z,8.80
2017-10-18T11:07:57.824Z,7.40
2017-10-18T11:10:26.280Z,7.40
2017-10-18T11:12:54.686Z,6.67
2017-10-18T11:15:23.070Z,8.50
2017-10-18T11:17:51.458Z,7.23
2017-10-18T11:20:19.871Z,7.17
2017-10-18T11:22:48.823Z,9.23
2017-10-18T11:25:17.015Z,8.63
2017-10-18T11:27:45.232Z,8.97
2017-10-18T11:30:13.410Z,6.50
2017-10-18T11:32:43.023Z,7.10
2017-10-18T11:35:11.438Z,7.97
2017-10-18T11:37:39.814Z,8.20
2017-10-18T11:40:08.195Z,7.60
2017-10-18T11:42:36.603Z,8.13
2017-10-18T11:45:05.750Z,7.97
2017-10-18T11:47:34.139Z,8.37
2017-10-18T11:50:02.550Z,7.80
2017-10-18T11:52:31.772Z,7.37
2017-10-18T11:55:00.146Z,8.70
2017-10-18T11:57:28.373Z,8.00
2017-10-18T11:59:56.781Z,7.10
2017-10-18T12:02:25.934Z,7.83
2017-10-18T12:04:54.406Z,9.60
2017-10-18T12:07:22.792Z,7.20
2017-10-18T12:09:51.172Z,7.70
2017-10-18T12:12:19.679Z,9.00
2017-10-18T12:14:48.062Z,7.87
2017-10-18T12:17:17.216Z,7.00
2017-10-18T12:19:45.439Z,7.30
2017-10-18T12:22:14.588Z,7.63
2017-10-18T12:24:42.970Z,7.67
2017-10-18T12:27:11.380Z,7.20
2017-10-18T12:29:39.570Z,8.00
2017-10-18T12:32:08.730Z,7.30
2017-10-18T12:34:37.171Z,6.87
2017-10-18T12:37:05.558Z,7.53
2017-10-18T12:39:33.950Z,7.20
2017-10-18T12:42:02.372Z,7.53
2017-10-18T12:44:31.517Z,7.67
2017-10-18T12:46:59.946Z,8.23
2017-10-18T12:49:29.112Z,6.80
2017-10-18T12:51:57.510Z,7.60
2017-10-18T12:54:25.904Z,8.97
2017-10-18T12:56:55.101Z,7.53
2017-10-18T12:59:24.247Z,6.90
2017-10-18T13:01:52.634Z,7.77
2017-10-18T13:04:21.039Z,7.00
2017-10-18T13:06:49.425Z,7.50
2017-10-18T13:09:18.575Z,8.10
2017-10-18T13:11:47.002Z,8.17
2017-10-18T13:14:16.159Z,8.07
2017-10-18T13:16:44.552Z,6.73
2017-10-18T13:19:13.007Z,6.10
2017-10-18T13:21:41.383Z,7.50
2017-10-18T13:24:09.770Z,6.90
2017-10-18T13:26:38.202Z,7.23
2017-10-18T13:29:07.346Z,7.30
2017-10-18T13:31:35.733Z,8.33
2017-10-18T13:34:04.278Z,7.33
2017-10-18T13:36:32.657Z,8.30
2017-10-18T13:39:01.050Z,8.20
2017-10-18T13:41:29.459Z,7.93
2017-10-18T13:43:57.835Z,7.90
2017-10-18T13:46:26.217Z,7.50
2017-10-18T13:48:54.622Z,7.50
2017-10-18T13:51:23.792Z,8.13
2017-10-18T13:53:52.218Z,7.20
2017-10-18T13:56:20.638Z,7.20
2017-10-18T13:58:49.041Z,7.80
2017-10-18T14:01:17.416Z,8.13
2017-10-18T14:03:45.914Z,7.87
2017-10-18T14:06:14.882Z,8.80
2017-10-18T14:08:43.061Z,8.70
2017-10-18T14:11:11.301Z,8.67
2017-10-18T14:13:39.491Z,8.20
2017-10-18T14:16:07.875Z,8.90
2017-10-18T14:18:36.274Z,8.17
2017-10-18T14:21:05.448Z,9.10
2017-10-18T14:23:33.872Z,8.00
2017-10-18T14:26:03.588Z,8.57
2017-10-18T14:28:31.987Z,9.07
2017-10-18T14:31:00.378Z,8.23
2017-10-18T14:33:28.774Z,8.73
2017-10-18T14:35:57.160Z,8.87
2017-10-18T14:38:25.558Z,8.20
2017-10-18T14:40:54.823Z,9.33
2017-10-18T14:43:23.973Z,8.40
2017-10-18T14:45:52.359Z,8.60
2017-10-18T14:48:22.998Z,8.57
2017-10-18T14:50:51.381Z,10.10
2017-10-18T14:53:19.775Z,9.00
2017-10-18T14:55:48.181Z,8.73
2017-10-18T14:58:16.563Z,10.37
2017-10-18T15:00:44.954Z,9.73
2017-10-18T15:03:13.931Z,8.40
2017-10-18T15:05:43.086Z,9.10
2017-10-18T15:08:11.473Z,9.00
2017-10-18T15:10:39.931Z,10.50
2017-10-18T15:13:08.310Z,9.10
2017-10-18T15:15:36.743Z,8.33
2017-10-18T15:23:52.150Z,10.60
2017-10-18T15:26:20.550Z,9.90
2017-10-18T15:28:49.708Z,9.37
2017-10-18T15:31:18.125Z,10.00
2017-10-18T15:33:47.312Z,9.23
2017-10-18T15:36:16.469Z,9.70
2017-10-18T15:38:44.784Z,10.03
2017-10-18T15:41:13.941Z,10.47
2017-10-18T15:43:42.325Z,9.53
2017-10-18T15:46:10.724Z,9.43
2017-10-18T15:48:39.100Z,10.60
2017-10-18T15:51:07.488Z,10.87
2017-10-18T15:53:35.916Z,10.33
2017-10-18T15:56:04.110Z,10.63
2017-10-18T15:58:32.306Z,10.30
2017-10-18T16:01:00.789Z,11.07
2017-10-18T16:03:29.268Z,9.87
2017-10-18T16:05:57.661Z,10.37
2017-10-18T16:08:26.853Z,10.10
2017-10-18T16:10:56.011Z,15.07
2017-10-18T16:13:24.474Z,11.50
2017-10-18T16:15:52.881Z,10.73
2017-10-18T16:18:21.283Z,10.50
2017-10-18T16:20:49.683Z,10.10
2017-10-18T16:23:17.911Z,10.77
2017-10-18T16:25:46.303Z,10.63
2017-10-18T16:28:14.690Z,9.63
2017-10-18T16:30:43.107Z,10.27
2017-10-18T16:33:11.495Z,11.10
2017-10-18T16:35:39.878Z,9.73
2017-10-18T16:38:08.326Z,9.30
2017-10-18T16:40:37.499Z,9.63
2017-10-18T16:43:06.889Z,9.93
2017-10-18T16:45:36.106Z,10.37
2017-10-18T16:48:13.132Z,11.23
2017-10-18T16:50:42.818Z,10.40
2017-10-18T16:53:12.676Z,9.80
2017-10-18T16:55:42.078Z,10.30
2017-10-18T16:58:11.483Z,11.07
2017-10-18T17:00:40.893Z,11.23
2017-10-18T17:03:10.365Z,10.33
2017-10-18T17:05:39.768Z,10.60
2017-10-18T17:08:09.154Z,10.00
2017-10-18T17:10:38.577Z,10.67
2017-10-18T17:13:07.981Z,10.67
2017-10-18T17:15:37.447Z,11.70
2017-10-18T17:18:06.949Z,11.17
2017-10-18T17:20:36.357Z,11.97
2017-10-18T17:23:05.750Z,10.40
2017-10-18T17:25:35.605Z,12.00
2017-10-18T17:28:05.069Z,10.83
2017-10-18T17:30:34.459Z,10.20
2017-10-18T17:33:03.921Z,10.60
2017-10-18T17:35:33.331Z,11.80
2017-10-18T17:38:02.755Z,12.30
2017-10-18T17:40:32.165Z,16.90
2017-10-18T17:43:01.896Z,16.07
2017-10-18T17:45:31.368Z,15.70
2017-10-18T17:48:00.831Z,16.90
2017-10-18T17:50:30.330Z,16.43
2017-10-18T17:52:59.802Z,16.03
2017-10-18T17:55:29.269Z,15.67
2017-10-18T17:57:58.687Z,16.10
2017-10-18T18:00:28.090Z,15.10
2017-10-18T18:02:57.568Z,15.57
2017-10-18T18:05:26.772Z,13.47
2017-10-18T18:07:56.033Z,14.57
2017-10-18T18:10:25.457Z,13.37
2017-10-18T18:12:54.682Z,13.73
2017-10-18T18:15:24.114Z,11.80
2017-10-18T18:17:53.410Z,11.00
2017-10-18T18:20:22.853Z,10.93
2017-10-18T18:22:52.241Z,10.60
2017-10-18T18:25:21.664Z,10.50
2017-10-18T18:27:51.056Z,10.03
2017-10-18T18:30:20.875Z,10.40
2017-10-18T18:32:50.416Z,10.10
2017-10-18T18:35:19.630Z,10.23
2017-10-18T18:37:48.911Z,10.60
2017-10-18T18:40:19.307Z,9.57
2017-10-18T18:42:48.538Z,9.30
2017-10-18T18:45:17.943Z,11.27
2017-10-18T18:47:47.388Z,9.77
2017-10-18T18:50:16.810Z,10.50
2017-10-18T18:52:46.190Z,9.97
2017-10-18T18:55:15.656Z,9.73
2017-10-18T18:57:45.144Z,10.23
2017-10-18T19:00:14.530Z,9.30
2017-10-18T19:02:43.774Z,9.50
2017-10-18T19:05:13.196Z,10.37
2017-10-18T19:07:42.589Z,10.30
2017-10-18T19:10:11.810Z,9.63
2017-10-18T19:12:41.016Z,10.20
2017-10-18T19:15:10.213Z,9.60
2017-10-18T19:17:39.453Z,10.10
2017-10-18T19:20:08.659Z,10.13
2017-10-18T19:22:37.862Z,9.50
2017-10-18T19:25:07.690Z,10.50
2017-10-18T19:27:37.089Z,10.43
2017-10-18T19:30:06.559Z,10.40
2017-10-18T19:32:36.085Z,8.87
2017-10-18T19:35:05.296Z,9.67
2017-10-18T19:37:33.681Z,10.43
2017-10-18T19:40:02.082Z,9.77
2017-10-18T19:42:30.486Z,11.70
2017-10-18T19:44:58.884Z,9.97
2017-10-18T19:47:28.095Z,10.10
2017-10-18T19:49:57.250Z,11.27
2017-10-18T19:52:25.654Z,9.17
2017-10-18T19:54:54.067Z,11.00
2017-10-18T19:57:22.449Z,8.67
2017-10-18T19:59:50.834Z,9.20
2017-10-18T20:02:19.244Z,10.10
2017-10-18T20:04:47.647Z,9.37
2017-10-18T20:07:16.800Z,11.90
2017-10-18T20:09:45.379Z,11.30
2017-10-18T20:12:13.785Z,11.60
2017-10-18T20:14:42.179Z,9.23
2017-10-18T20:17:10.616Z,10.80
2017-10-18T20:19:40.032Z,10.70
2017-10-18T20:22:08.426Z,9.80
2017-10-18T20:24:36.884Z,10.40
2017-10-18T20:27:05.557Z,10.70
2017-10-18T20:29:33.951Z,10.70
2017-10-18T20:32:02.374Z,10.77
2017-10-18T20:34:31.535Z,10.20
2017-10-18T20:36:59.746Z,11.43
2017-10-18T20:39:28.926Z,10.73
2017-10-18T20:41:58.326Z,10.50
2017-10-18T20:44:27.794Z,11.03
2017-10-18T20:46:57.218Z,11.50
2017-10-18T20:49:25.667Z,9.63
2017-10-18T20:51:54.056Z,11.20
2017-10-18T20:54:22.620Z,10.07
2017-10-18T20:56:51.631Z,11.03
2017-10-18T20:59:20.109Z,10.87
2017-10-18T21:01:49.781Z,9.93
2017-10-18T21:04:18.227Z,10.47
2017-10-18T21:06:46.643Z,10.80
2017-10-18T21:09:15.051Z,10.93
2017-10-18T21:11:43.288Z,11.33
2017-10-18T21:14:12.450Z,11.90
2017-10-18T21:16:41.164Z,10.43
2017-10-18T21:19:10.397Z,11.43
2017-10-18T21:21:38.779Z,10.97
2017-10-18T21:24:07.218Z,11.20
2017-10-18T21:26:36.362Z,12.63
2017-10-18T21:29:04.752Z,11.50
2017-10-18T21:31:33.257Z,11.30
2017-10-18T21:34:01.642Z,11.87
2017-10-18T21:36:30.803Z,12.73
2017-10-18T21:38:59.037Z,12.20
2017-10-18T21:41:27.255Z,10.87
2017-10-18T21:43:57.612Z,15.93
2017-10-18T21:46:26.011Z,11.93
2017-10-18T21:48:54.400Z,12.33
2017-10-18T21:51:22.786Z,12.77
2017-10-18T21:53:51.195Z,12.40
2017-10-18T21:56:19.579Z,12.23
2017-10-18T21:58:47.958Z,13.40
2017-10-18T22:01:16.366Z,12.77
2017-10-18T22:03:45.515Z,11.27
2017-10-18T22:06:13.905Z,12.80
2017-10-18T22:08:42.312Z,11.77
2017-10-18T22:11:10.706Z,11.80
2017-10-18T22:13:39.850Z,11.07
2017-10-18T22:16:08.281Z,12.23
2017-10-18T22:18:37.435Z,12.33
2017-10-18T22:21:05.817Z,12.57
2017-10-18T22:23:34.215Z,11.20
2017-10-18T22:26:02.603Z,11.03
2017-10-18T22:28:31.758Z,10.30
2017-10-18T22:31:00.156Z,12.07
2017-10-18T22:33:28.538Z,11.73
2017-10-18T22:35:56.925Z,13.77
2017-10-18T22:38:25.322Z,11.70
2017-10-18T22:40:54.487Z,12.63
2017-10-18T22:43:22.871Z,12.13
2017-10-18T22:45:51.275Z,11.23
2017-10-18T22:48:20.430Z,12.30
2017-10-18T22:50:48.822Z,11.83
2017-10-18T22:53:17.218Z,9.97
2017-10-18T22:55:46.366Z,11.47
2017-10-18T22:58:14.754Z,11.70
2017-10-18T23:00:42.818Z,11.60
2017-10-18T23:03:11.019Z,10.53
2017-10-18T23:05:41.722Z,12.07
2017-10-18T23:08:11.122Z,12.40
2017-10-18T23:10:39.502Z,11.37
2017-10-18T23:13:07.889Z,11.30
2017-10-18T23:15:37.070Z,12.77
2017-10-18T23:18:05.475Z,12.80
2017-10-18T23:20:33.867Z,12.53
2017-10-18T23:23:02.298Z,11.57
2017-10-18T23:25:30.692Z,12.90
2017-10-18T23:27:59.076Z,11.30
2017-10-18T23:30:27.594Z,11.53
2017-10-18T23:32:56.755Z,11.63
2017-10-18T23:35:25.149Z,11.80
2017-10-18T23:37:53.650Z,12.17
2017-10-18T23:40:22.806Z,12.27
2017-10-18T23:42:51.263Z,13.07
2017-10-18T23:45:19.670Z,11.00
2017-10-18T23:47:49.282Z,11.43
2017-10-18T23:50:17.662Z,10.90
2017-10-18T23:52:57.579Z,12.03
2017-10-18T23:55:25.981Z,12.23
2017-10-18T23:57:54.361Z,11.50
